createdAt,value
2019-03-12T00:04:31.241Z,2.63
2019-03-12T00:09:25.144Z,2.60
2019-03-12T00:14:19.073Z,2.70
2019-03-12T00:19:12.946Z,2.71
2019-03-12T00:24:06.816Z,2.63
2019-03-12T00:29:00.664Z,2.56
2019-03-12T00:33:54.524Z,2.46
2019-03-12T00:38:48.488Z,2.36
2019-03-12T00:43:42.334Z,2.33
2019-03-12T00:48:36.207Z,2.22
2019-03-12T00:53:30.153Z,2.13
2019-03-12T00:58:24.007Z,2.11
2019-03-12T01:03:18.076Z,2.10
2019-03-12T01:08:11.909Z,2.04
2019-03-12T01:13:14.399Z,2.06
2019-03-12T01:18:08.332Z,2.00
2019-03-12T01:23:02.507Z,1.95
2019-03-12T01:27:56.354Z,1.96
2019-03-12T01:32:50.214Z,1.93
2019-03-12T01:37:44.062Z,1.89
2019-03-12T01:42:37.913Z,1.91
2019-03-12T01:47:31.771Z,1.96
2019-03-12T01:52:25.713Z,1.94
2019-03-12T01:57:19.557Z,1.91
2019-03-12T02:02:13.417Z,1.95
2019-03-12T02:07:07.476Z,1.92
2019-03-12T02:12:01.680Z,1.89
2019-03-12T02:16:55.677Z,1.83
2019-03-12T02:21:49.613Z,1.77
2019-03-12T02:26:43.474Z,1.68
2019-03-12T02:31:37.288Z,1.63
2019-03-12T02:36:31.132Z,1.60
2019-03-12T02:41:24.991Z,1.59
2019-03-12T02:46:18.931Z,1.58
2019-03-12T02:51:12.786Z,1.55
2019-03-12T02:56:06.635Z,1.58
2019-03-12T03:01:00.487Z,1.58
2019-03-12T03:05:56.235Z,1.55
2019-03-12T03:10:50.104Z,1.60
2019-03-12T03:15:47.169Z,1.65
2019-03-12T03:20:41.063Z,1.68
2019-03-12T03:25:34.921Z,1.69
2019-03-12T03:30:28.801Z,1.77
2019-03-12T03:35:22.639Z,1.77
2019-03-12T03:40:20.251Z,1.78
2019-03-12T03:45:14.823Z,1.77
2019-03-12T03:50:10.992Z,1.74
2019-03-12T03:55:13.730Z,1.78
2019-03-12T04:00:13.320Z,1.92
2019-03-12T04:05:07.566Z,2.03
2019-03-12T04:10:02.096Z,2.10
2019-03-12T04:14:56.009Z,2.05
2019-03-12T04:19:49.954Z,2.06
2019-03-12T04:24:43.805Z,2.06
2019-03-12T04:29:37.642Z,2.04
2019-03-12T04:34:31.515Z,2.03
2019-03-12T04:39:25.386Z,2.06
2019-03-12T04:44:19.197Z,2.10
2019-03-12T04:49:13.224Z,2.21
2019-03-12T04:54:07.081Z,2.21
2019-03-12T04:59:01.040Z,2.30
2019-03-12T05:03:54.909Z,2.33
2019-03-12T05:08:48.853Z,2.30
2019-03-12T05:13:46.529Z,2.27
2019-03-12T05:18:40.383Z,2.24
2019-03-12T05:23:34.244Z,2.31
2019-03-12T05:28:28.258Z,2.40
2019-03-12T05:33:22.147Z,2.49
2019-03-12T05:38:15.992Z,2.60
2019-03-12T05:43:09.844Z,2.67
2019-03-12T05:48:03.797Z,2.74
2019-03-12T05:53:12.958Z,2.82
2019-03-12T05:58:06.908Z,2.87
2019-03-12T06:03:00.769Z,2.94
2019-03-12T06:07:55.621Z,3.04
2019-03-12T06:12:49.825Z,3.09
2019-03-12T06:17:43.718Z,3.19
2019-03-12T06:22:37.773Z,3.26
2019-03-12T06:27:31.636Z,3.39
2019-03-12T06:32:27.510Z,3.52
2019-03-12T06:37:25.982Z,3.62
2019-03-12T06:42:21.736Z,3.78
2019-03-12T06:47:23.292Z,3.98
2019-03-12T06:52:21.577Z,4.10
2019-03-12T06:57:17.339Z,4.24
2019-03-12T07:02:25.386Z,4.41
2019-03-12T07:07:41.746Z,4.56
2019-03-12T07:12:38.253Z,4.68
2019-03-12T07:17:46.026Z,4.79
2019-03-12T07:22:41.782Z,4.81
2019-03-12T07:27:46.602Z,5.02
2019-03-12T07:32:48.548Z,5.23
2019-03-12T07:37:47.198Z,5.29
2019-03-12T07:42:42.931Z,5.47
2019-03-12T07:47:41.838Z,5.65
2019-03-12T07:52:39.218Z,5.74
2019-03-12T07:57:41.044Z,5.82
2019-03-12T08:02:45.755Z,5.95
2019-03-12T08:07:41.541Z,6.06
2019-03-12T08:12:43.292Z,6.35
2019-03-12T08:17:39.052Z,6.49
2019-03-12T08:22:34.822Z,6.74
2019-03-12T08:27:30.684Z,7.05
2019-03-12T08:32:38.596Z,7.06
2019-03-12T08:37:46.641Z,7.07
2019-03-12T08:42:54.133Z,7.23
2019-03-12T08:47:42.979Z,7.36
2019-03-12T08:52:38.833Z,7.65
2019-03-12T08:57:37.602Z,7.88
2019-03-12T09:02:33.395Z,8.04
2019-03-12T09:07:31.954Z,8.29
2019-03-12T09:12:30.471Z,8.43
2019-03-12T09:17:32.253Z,8.81
2019-03-12T09:22:28.033Z,8.88
2019-03-12T09:27:26.854Z,9.29
2019-03-12T09:32:37.692Z,9.31
2019-03-12T09:37:33.475Z,9.30
2019-03-12T09:42:46.278Z,9.55
2019-03-12T09:47:44.819Z,9.56
2019-03-12T09:52:40.559Z,9.34
2019-03-12T09:57:48.376Z,9.49
2019-03-12T10:02:47.249Z,8.95
2019-03-12T10:07:49.321Z,8.95
2019-03-12T10:12:45.478Z,9.19
2019-03-12T10:17:41.288Z,9.07
2019-03-12T10:22:40.019Z,9.19
2019-03-12T10:27:38.583Z,9.48
2019-03-12T10:32:50.979Z,9.73
2019-03-12T10:37:46.729Z,9.61
2019-03-12T10:43:08.546Z,10.04
2019-03-12T10:48:04.512Z,10.62
2019-03-12T10:52:58.482Z,10.68
2019-03-12T10:57:52.359Z,11.37
2019-03-12T11:02:46.315Z,11.54
2019-03-12T11:07:40.182Z,12.18
2019-03-12T11:12:34.200Z,13.32
2019-03-12T11:17:28.149Z,13.71
2019-03-12T11:22:22.029Z,13.01
2019-03-12T11:27:16.015Z,12.32
2019-03-12T11:32:09.992Z,11.72
2019-03-12T11:37:03.877Z,11.55
2019-03-12T11:41:57.737Z,11.67
2019-03-12T11:46:51.625Z,11.98
2019-03-12T11:51:45.481Z,12.86
2019-03-12T11:56:39.446Z,12.57
2019-03-12T12:01:33.516Z,12.68
2019-03-12T12:06:27.345Z,12.40
2019-03-12T12:11:21.339Z,12.80
2019-03-12T12:16:15.201Z,12.02
2019-03-12T12:21:09.070Z,11.98
2019-03-12T12:26:03.071Z,12.84
2019-03-12T12:30:57.150Z,12.71
2019-03-12T12:35:51.219Z,12.11
2019-03-12T12:40:45.115Z,12.04
2019-03-12T12:45:39.193Z,12.00
2019-03-12T12:50:33.161Z,12.36
2019-03-12T12:55:27.133Z,12.71
2019-03-12T13:00:25.313Z,12.24
2019-03-12T13:05:19.497Z,11.94
2019-03-12T13:10:22.281Z,12.22
2019-03-12T13:15:16.372Z,12.51
2019-03-12T13:20:10.667Z,12.14
2019-03-12T13:25:10.112Z,13.45
2019-03-12T13:30:15.663Z,15.25
2019-03-12T13:35:12.137Z,14.35
2019-03-12T13:40:09.420Z,14.19
2019-03-12T13:45:07.087Z,12.97
2019-03-12T13:50:01.945Z,12.53
2019-03-12T13:54:56.243Z,12.23
2019-03-12T13:59:50.139Z,11.86
2019-03-12T14:04:44.021Z,11.50
2019-03-12T14:09:37.984Z,11.30
2019-03-12T14:14:31.936Z,11.25
2019-03-12T14:19:25.846Z,11.26
2019-03-12T14:24:19.726Z,11.09
2019-03-12T14:29:13.729Z,10.76
2019-03-12T14:34:07.566Z,10.67
2019-03-12T14:39:01.536Z,10.51
2019-03-12T14:43:55.721Z,10.66
2019-03-12T14:48:51.920Z,10.58
2019-03-12T14:53:49.693Z,10.61
2019-03-12T14:58:43.589Z,10.57
2019-03-12T15:03:37.541Z,10.62
2019-03-12T15:08:31.391Z,10.51
2019-03-12T15:13:25.302Z,10.50
2019-03-12T15:18:19.216Z,10.45
2019-03-12T15:23:13.056Z,10.43
2019-03-12T15:28:07.029Z,10.48
2019-03-12T15:33:00.897Z,10.51
2019-03-12T15:37:54.887Z,10.34
2019-03-12T15:42:48.881Z,10.30
2019-03-12T15:47:42.759Z,10.26
2019-03-12T15:52:36.736Z,10.25
2019-03-12T15:57:30.706Z,10.22
2019-03-12T16:02:24.621Z,10.16
2019-03-12T16:07:18.602Z,10.23
2019-03-12T16:12:12.490Z,10.21
2019-03-12T16:17:06.471Z,10.21
2019-03-12T16:22:00.326Z,10.24
2019-03-12T16:26:54.210Z,10.23
2019-03-12T16:31:48.171Z,10.24
2019-03-12T16:36:42.164Z,10.25
2019-03-12T16:41:36.021Z,10.20
2019-03-12T16:46:29.900Z,10.15
2019-03-12T16:51:23.931Z,10.12
2019-03-12T16:56:17.799Z,10.13
2019-03-12T17:01:11.696Z,10.08
2019-03-12T17:06:05.585Z,10.05
2019-03-12T17:11:02.730Z,10.02
2019-03-12T17:15:55.268Z,10.00
2019-03-12T17:20:49.259Z,10.00
2019-03-12T17:25:43.128Z,10.02
2019-03-12T17:30:36.983Z,9.99
2019-03-12T17:35:33.987Z,9.94
2019-03-12T17:40:27.864Z,9.94
2019-03-12T17:45:21.866Z,9.88
2019-03-12T17:50:15.920Z,9.87
2019-03-12T17:55:12.026Z,9.90
2019-03-12T18:00:28.060Z,9.93
2019-03-12T18:05:21.435Z,9.95
2019-03-12T18:10:16.548Z,9.97
2019-03-12T18:15:19.023Z,9.95
2019-03-12T18:20:16.735Z,10.01
2019-03-12T18:25:29.355Z,10.06
2019-03-12T18:30:23.235Z,10.04
2019-03-12T18:35:17.303Z,10.05
2019-03-12T18:40:16.325Z,10.11
2019-03-12T18:45:16.442Z,10.10
2019-03-12T18:50:12.701Z,10.11
2019-03-12T18:55:10.327Z,10.10
2019-03-12T19:00:08.163Z,10.15
2019-03-12T19:05:03.717Z,10.23
2019-03-12T19:09:57.649Z,10.27
2019-03-12T19:14:51.673Z,10.26
2019-03-12T19:19:45.559Z,10.30
2019-03-12T19:24:39.839Z,10.32
2019-03-12T19:29:33.840Z,10.26
2019-03-12T19:34:29.633Z,10.06
2019-03-12T19:39:23.585Z,9.86
2019-03-12T19:44:17.513Z,9.80
2019-03-12T19:49:11.559Z,9.82
2019-03-12T19:54:05.449Z,9.81
2019-03-12T19:58:59.596Z,9.76
2019-03-12T20:03:53.485Z,9.74
2019-03-12T20:08:47.504Z,9.70
2019-03-12T20:14:00.690Z,9.68
2019-03-12T20:19:21.197Z,9.69
2019-03-12T20:30:24.394Z,9.72
2019-03-12T20:35:55.159Z,9.79
2019-03-12T20:41:09.575Z,9.79
2019-03-12T20:46:21.760Z,9.81
2019-03-12T20:51:39.467Z,9.96
2019-03-12T20:56:45.724Z,9.99
2019-03-12T21:02:01.531Z,9.98
2019-03-12T21:07:04.992Z,10.00
2019-03-12T21:12:19.799Z,9.95
2019-03-12T21:17:36.923Z,9.79
2019-03-12T21:23:02.348Z,9.32
2019-03-12T21:28:25.848Z,8.79
2019-03-12T21:33:19.804Z,7.05
2019-03-12T21:38:13.799Z,6.05
2019-03-12T21:43:07.778Z,5.81
2019-03-12T21:48:01.760Z,5.73
2019-03-12T21:52:55.662Z,5.61
2019-03-12T21:57:49.499Z,5.55
2019-03-12T22:02:43.367Z,5.44
2019-03-12T22:07:37.348Z,5.45
2019-03-12T22:12:31.275Z,5.40
2019-03-12T22:17:25.130Z,5.44
2019-03-12T22:22:21.055Z,5.51
2019-03-12T22:27:14.916Z,5.52
2019-03-12T22:32:08.798Z,5.47
2019-03-12T22:37:02.746Z,5.47
2019-03-12T22:41:56.625Z,5.55
2019-03-12T22:46:50.554Z,5.52
2019-03-12T22:51:44.418Z,5.59
2019-03-12T22:56:38.388Z,5.60
2019-03-12T23:01:32.328Z,5.65
2019-03-12T23:06:28.736Z,5.65
2019-03-12T23:11:22.344Z,5.65
2019-03-12T23:16:16.435Z,5.59
2019-03-12T23:21:10.301Z,5.63
2019-03-12T23:26:04.166Z,5.66
2019-03-12T23:30:58.125Z,5.67
2019-03-12T23:35:51.989Z,5.67
2019-03-12T23:40:45.834Z,5.72
2019-03-12T23:45:39.780Z,5.74
2019-03-12T23:50:33.655Z,5.70
2019-03-12T23:55:28.203Z,5.60
